sensor_id;sensor_type;location;lat;lon;timestamp;pressure;altitude;pressure_sealevel;temperature;humidity
9335;BME280;4706;41.844;26.082;2023-05-03T00:00:17;101392.59;;;15.76;53.32
9335;BME280;4706;41.844;26.082;2023-05-03T00:02:43;101368.69;;;15.67;53.15
9335;BME280;4706;41.844;26.082;2023-05-03T00:05:09;101380.34;;;15.77;53.11
9335;BME280;4706;41.844;26.082;2023-05-03T00:07:43;101366.09;;;15.70;52.83
9335;BME280;4706;41.844;26.082;2023-05-03T00:10:13;101370.50;;;15.71;52.58
9335;BME280;4706;41.844;26.082;2023-05-03T00:12:42;101360.88;;;15.69;52.37
9335;BME280;4706;41.844;26.082;2023-05-03T00:15:08;101366.97;;;15.57;52.26
9335;BME280;4706;41.844;26.082;2023-05-03T00:17:37;101379.13;;;15.47;52.11
9335;BME280;4706;41.844;26.082;2023-05-03T00:20:04;101373.06;;;15.45;52.10
9335;BME280;4706;41.844;26.082;2023-05-03T00:22:30;101368.34;;;15.46;52.33
9335;BME280;4706;41.844;26.082;2023-05-03T00:24:56;101374.06;;;15.49;52.07
9335;BME280;4706;41.844;26.082;2023-05-03T00:27:21;101372.63;;;15.52;52.32
9335;BME280;4706;41.844;26.082;2023-05-03T00:29:49;101373.97;;;15.54;52.39
9335;BME280;4706;41.844;26.082;2023-05-03T00:32:17;101386.81;;;15.50;51.99
9335;BME280;4706;41.844;26.082;2023-05-03T00:34:42;101372.75;;;15.47;51.89
9335;BME280;4706;41.844;26.082;2023-05-03T00:37:08;101370.81;;;15.47;52.06
9335;BME280;4706;41.844;26.082;2023-05-03T00:39:34;101366.31;;;15.38;52.18
9335;BME280;4706;41.844;26.082;2023-05-03T00:42:02;101376.19;;;15.30;52.80
9335;BME280;4706;41.844;26.082;2023-05-03T00:44:28;101374.16;;;15.22;52.96
9335;BME280;4706;41.844;26.082;2023-05-03T00:46:55;101373.47;;;15.16;53.08
9335;BME280;4706;41.844;26.082;2023-05-03T00:49:23;101387.16;;;15.13;53.06
9335;BME280;4706;41.844;26.082;2023-05-03T00:51:50;101379.25;;;15.06;53.03
9335;BME280;4706;41.844;26.082;2023-05-03T00:54:17;101380.78;;;15.12;53.61
9335;BME280;4706;41.844;26.082;2023-05-03T00:56:43;101379.94;;;15.12;54.43
9335;BME280;4706;41.844;26.082;2023-05-03T00:59:10;101392.22;;;15.19;55.11
9335;BME280;4706;41.844;26.082;2023-05-03T01:01:36;101392.06;;;15.16;55.71
9335;BME280;4706;41.844;26.082;2023-05-03T01:04:02;101391.88;;;15.12;56.07
9335;BME280;4706;41.844;26.082;2023-05-03T01:09:25;101391.03;;;15.12;56.45
9335;BME280;4706;41.844;26.082;2023-05-03T01:14:51;101385.59;;;15.06;57.43
9335;BME280;4706;41.844;26.082;2023-05-03T01:17:22;101375.47;;;15.02;57.39
9335;BME280;4706;41.844;26.082;2023-05-03T01:19:57;101373.94;;;14.96;58.01
9335;BME280;4706;41.844;26.082;2023-05-03T01:22:26;101372.63;;;14.93;58.19
9335;BME280;4706;41.844;26.082;2023-05-03T01:25:14;101366.16;;;14.70;58.63
9335;BME280;4706;41.844;26.082;2023-05-03T01:27:41;101366.28;;;14.79;58.35
9335;BME280;4706;41.844;26.082;2023-05-03T01:30:11;101371.91;;;14.74;58.82
9335;BME280;4706;41.844;26.082;2023-05-03T01:37:57;101368.34;;;14.60;59.08
9335;BME280;4706;41.844;26.082;2023-05-03T01:40:25;101360.34;;;14.58;58.80
9335;BME280;4706;41.844;26.082;2023-05-03T01:42:52;101360.34;;;14.58;58.97
9335;BME280;4706;41.844;26.082;2023-05-03T01:45:19;101375.91;;;14.68;58.48
9335;BME280;4706;41.844;26.082;2023-05-03T01:47:44;101362.56;;;14.70;58.05
9335;BME280;4706;41.844;26.082;2023-05-03T01:50:10;101365.13;;;14.66;58.59
9335;BME280;4706;41.844;26.082;2023-05-03T01:52:35;101353.25;;;14.66;58.75
9335;BME280;4706;41.844;26.082;2023-05-03T01:55:01;101354.59;;;14.68;58.62
9335;BME280;4706;41.844;26.082;2023-05-03T01:57:27;101352.63;;;14.69;58.65
9335;BME280;4706;41.844;26.082;2023-05-03T01:59:52;101352.03;;;14.72;58.54
9335;BME280;4706;41.844;26.082;2023-05-03T02:02:18;101345.97;;;14.70;58.78
9335;BME280;4706;41.844;26.082;2023-05-03T02:04:43;101347.41;;;14.67;58.73
9335;BME280;4706;41.844;26.082;2023-05-03T02:07:09;101343.50;;;14.68;58.83
9335;BME280;4706;41.844;26.082;2023-05-03T02:09:35;101341.97;;;14.62;58.64
9335;BME280;4706;41.844;26.082;2023-05-03T02:12:00;101347.22;;;14.64;58.53
9335;BME280;4706;41.844;26.082;2023-05-03T02:14:25;101327.84;;;14.64;58.21
9335;BME280;4706;41.844;26.082;2023-05-03T02:16:51;101332.72;;;14.67;56.58
9335;BME280;4706;41.844;26.082;2023-05-03T02:19:20;101350.69;;;14.69;55.64
9335;BME280;4706;41.844;26.082;2023-05-03T02:21:45;101364.03;;;14.67;55.02
9335;BME280;4706;41.844;26.082;2023-05-03T02:24:11;101358.16;;;14.69;55.00
9335;BME280;4706;41.844;26.082;2023-05-03T02:26:36;101359.00;;;14.69;55.80
9335;BME280;4706;41.844;26.082;2023-05-03T02:29:02;101355.81;;;14.76;56.27
9335;BME280;4706;41.844;26.082;2023-05-03T02:31:28;101349.75;;;14.74;56.95
9335;BME280;4706;41.844;26.082;2023-05-03T02:33:53;101341.56;;;14.69;57.27
9335;BME280;4706;41.844;26.082;2023-05-03T02:36:19;101354.78;;;14.72;57.60
9335;BME280;4706;41.844;26.082;2023-05-03T02:38:46;101355.00;;;14.75;57.80
9335;BME280;4706;41.844;26.082;2023-05-03T02:41:11;101355.47;;;14.77;58.01
9335;BME280;4706;41.844;26.082;2023-05-03T02:43:37;101358.91;;;14.74;58.25
9335;BME280;4706;41.844;26.082;2023-05-03T02:46:02;101359.91;;;14.78;58.59
9335;BME280;4706;41.844;26.082;2023-05-03T02:48:28;101350.28;;;14.76;58.88
9335;BME280;4706;41.844;26.082;2023-05-03T02:50:53;101351.69;;;14.73;58.90
9335;BME280;4706;41.844;26.082;2023-05-03T02:53:19;101362.97;;;14.77;59.26
9335;BME280;4706;41.844;26.082;2023-05-03T02:55:45;101361.03;;;14.77;59.40
9335;BME280;4706;41.844;26.082;2023-05-03T02:58:10;101372.22;;;14.72;59.63
9335;BME280;4706;41.844;26.082;2023-05-03T03:00:36;101373.25;;;14.63;60.03
9335;BME280;4706;41.844;26.082;2023-05-03T03:03:02;101367.09;;;14.66;60.47
9335;BME280;4706;41.844;26.082;2023-05-03T03:05:27;101377.97;;;14.62;60.44
9335;BME280;4706;41.844;26.082;2023-05-03T03:07:53;101381.34;;;14.59;60.43
9335;BME280;4706;41.844;26.082;2023-05-03T03:10:19;101371.59;;;14.62;60.58
9335;BME280;4706;41.844;26.082;2023-05-03T03:12:44;101377.25;;;14.56;60.99
9335;BME280;4706;41.844;26.082;2023-05-03T03:15:10;101378.28;;;14.61;60.83
9335;BME280;4706;41.844;26.082;2023-05-03T03:17:35;101354.38;;;14.51;60.45
9335;BME280;4706;41.844;26.082;2023-05-03T03:20:08;101355.59;;;14.58;60.49
9335;BME280;4706;41.844;26.082;2023-05-03T03:22:36;101345.19;;;14.55;60.72
9335;BME280;4706;41.844;26.082;2023-05-03T03:25:02;101353.97;;;14.57;60.69
9335;BME280;4706;41.844;26.082;2023-05-03T03:27:29;101349.06;;;14.54;60.98
9335;BME280;4706;41.844;26.082;2023-05-03T03:29:54;101341.28;;;14.56;60.97
9335;BME280;4706;41.844;26.082;2023-05-03T03:32:20;101332.97;;;14.56;61.07
9335;BME280;4706;41.844;26.082;2023-05-03T03:34:46;101361.16;;;14.58;61.34
9335;BME280;4706;41.844;26.082;2023-05-03T03:37:11;101379.81;;;14.53;61.53
9335;BME280;4706;41.844;26.082;2023-05-03T03:39:37;101400.03;;;14.53;61.52
9335;BME280;4706;41.844;26.082;2023-05-03T03:42:05;101393.66;;;14.53;61.45
9335;BME280;4706;41.844;26.082;2023-05-03T03:44:30;101393.06;;;14.56;61.85
9335;BME280;4706;41.844;26.082;2023-05-03T03:46:56;101387.19;;;14.57;61.69
9335;BME280;4706;41.844;26.082;2023-05-03T03:49:21;101385.84;;;14.55;61.79
9335;BME280;4706;41.844;26.082;2023-05-03T03:51:47;101364.03;;;14.53;61.94
9335;BME280;4706;41.844;26.082;2023-05-03T03:54:13;101374.78;;;14.55;61.77
9335;BME280;4706;41.844;26.082;2023-05-03T03:56:38;101375.72;;;14.64;61.42
9335;BME280;4706;41.844;26.082;2023-05-03T03:59:04;101371.59;;;14.62;61.76
9335;BME280;4706;41.844;26.082;2023-05-03T04:01:29;101381.88;;;14.61;61.97
9335;BME280;4706;41.844;26.082;2023-05-03T04:03:55;101404.34;;;14.60;62.47
9335;BME280;4706;41.844;26.082;2023-05-03T04:06:20;101426.78;;;14.58;61.84
9335;BME280;4706;41.844;26.082;2023-05-03T04:08:46;101418.63;;;14.48;62.34
9335;BME280;4706;41.844;26.082;2023-05-03T04:11:12;101411.66;;;14.37;64.26
9335;BME280;4706;41.844;26.082;2023-05-03T04:13:37;101433.19;;;14.40;65.78
9335;BME280;4706;41.844;26.082;2023-05-03T04:16:07;101465.97;;;14.32;66.06
9335;BME280;4706;41.844;26.082;2023-05-03T04:18:33;101476.53;;;14.30;65.72
9335;BME280;4706;41.844;26.082;2023-05-03T04:20:58;101473.28;;;14.09;66.96
9335;BME280;4706;41.844;26.082;2023-05-03T04:23:24;101454.06;;;13.85;67.87
9335;BME280;4706;41.844;26.082;2023-05-03T04:25:49;101467.41;;;13.97;68.69
9335;BME280;4706;41.844;26.082;2023-05-03T04:28:15;101473.59;;;14.08;69.68
9335;BME280;4706;41.844;26.082;2023-05-03T04:30:41;101471.56;;;14.14;70.35
9335;BME280;4706;41.844;26.082;2023-05-03T04:33:09;101472.31;;;14.19;70.55
9335;BME280;4706;41.844;26.082;2023-05-03T04:35:35;101448.22;;;14.20;69.90
9335;BME280;4706;41.844;26.082;2023-05-03T04:38:01;101457.94;;;14.17;69.38
9335;BME280;4706;41.844;26.082;2023-05-03T04:40:27;101464.44;;;14.26;69.03
9335;BME280;4706;41.844;26.082;2023-05-03T04:42:53;101449.56;;;14.22;68.95
9335;BME280;4706;41.844;26.082;2023-05-03T04:45:20;101453.75;;;14.20;68.79
9335;BME280;4706;41.844;26.082;2023-05-03T04:47:45;101455.91;;;14.23;68.84
9335;BME280;4706;41.844;26.082;2023-05-03T04:50:12;101463.41;;;14.22;68.94
9335;BME280;4706;41.844;26.082;2023-05-03T04:52:38;101463.63;;;14.26;68.85
9335;BME280;4706;41.844;26.082;2023-05-03T04:55:03;101470.63;;;14.37;69.21
9335;BME280;4706;41.844;26.082;2023-05-03T04:57:29;101456.25;;;14.35;69.23
9335;BME280;4706;41.844;26.082;2023-05-03T04:59:56;101461.69;;;14.40;69.41
9335;BME280;4706;41.844;26.082;2023-05-03T05:02:22;101457.69;;;14.46;68.93
9335;BME280;4706;41.844;26.082;2023-05-03T05:04:47;101452.09;;;14.51;68.80
9335;BME280;4706;41.844;26.082;2023-05-03T05:07:13;101446.88;;;14.50;68.30
9335;BME280;4706;41.844;26.082;2023-05-03T05:09:38;101447.16;;;14.48;68.52
9335;BME280;4706;41.844;26.082;2023-05-03T05:12:04;101445.72;;;14.51;68.68
9335;BME280;4706;41.844;26.082;2023-05-03T05:14:30;101455.91;;;14.55;68.85
9335;BME280;4706;41.844;26.082;2023-05-03T05:16:56;101470.34;;;14.66;69.11
9335;BME280;4706;41.844;26.082;2023-05-03T05:19:22;101476.53;;;14.63;68.74
9335;BME280;4706;41.844;26.082;2023-05-03T05:21:47;101492.13;;;14.73;68.07
9335;BME280;4706;41.844;26.082;2023-05-03T05:24:13;101506.56;;;14.56;68.69
9335;BME280;4706;41.844;26.082;2023-05-03T05:26:38;101496.94;;;14.67;68.60
9335;BME280;4706;41.844;26.082;2023-05-03T05:29:04;101514.28;;;14.73;68.70
9335;BME280;4706;41.844;26.082;2023-05-03T05:31:30;101481.47;;;14.47;68.71
9335;BME280;4706;41.844;26.082;2023-05-03T05:33:55;101500.59;;;14.63;68.43
9335;BME280;4706;41.844;26.082;2023-05-03T05:36:21;101497.84;;;14.63;67.86
9335;BME280;4706;41.844;26.082;2023-05-03T05:38:46;101498.06;;;14.66;67.02
9335;BME280;4706;41.844;26.082;2023-05-03T05:41:12;101506.56;;;14.70;67.15
9335;BME280;4706;41.844;26.082;2023-05-03T05:43:37;101506.06;;;14.68;67.34
9335;BME280;4706;41.844;26.082;2023-05-03T05:46:03;101517.84;;;14.73;67.42
9335;BME280;4706;41.844;26.082;2023-05-03T05:48:28;101521.56;;;14.82;67.99
9335;BME280;4706;41.844;26.082;2023-05-03T05:50:54;101536.53;;;14.81;67.37
9335;BME280;4706;41.844;26.082;2023-05-03T05:53:20;101539.81;;;14.70;68.32
9335;BME280;4706;41.844;26.082;2023-05-03T05:55:45;101536.31;;;14.78;67.42
9335;BME280;4706;41.844;26.082;2023-05-03T05:58:11;101536.75;;;14.85;67.39
9335;BME280;4706;41.844;26.082;2023-05-03T06:00:38;101559.75;;;14.86;67.12
9335;BME280;4706;41.844;26.082;2023-05-03T06:03:04;101565.47;;;14.75;67.59
9335;BME280;4706;41.844;26.082;2023-05-03T06:05:29;101572.25;;;14.83;66.59
9335;BME280;4706;41.844;26.082;2023-05-03T06:07:55;101587.56;;;14.94;66.70
9335;BME280;4706;41.844;26.082;2023-05-03T06:10:20;101563.22;;;14.91;66.92
9335;BME280;4706;41.844;26.082;2023-05-03T06:12:46;101551.13;;;15.15;66.84
9335;BME280;4706;41.844;26.082;2023-05-03T06:15:11;101552.78;;;15.16;67.08
9335;BME280;4706;41.844;26.082;2023-05-03T06:17:37;101539.97;;;15.20;66.68
9335;BME280;4706;41.844;26.082;2023-05-03T06:20:03;101532.97;;;15.22;69.16
9335;BME280;4706;41.844;26.082;2023-05-03T06:22:28;101530.78;;;15.47;66.36
9335;BME280;4706;41.844;26.082;2023-05-03T06:24:54;101525.66;;;15.54;66.04
9335;BME280;4706;41.844;26.082;2023-05-03T06:27:20;101524.81;;;15.67;65.15
9335;BME280;4706;41.844;26.082;2023-05-03T06:29:46;101526.53;;;15.77;65.17
9335;BME280;4706;41.844;26.082;2023-05-03T06:32:12;101525.09;;;15.79;64.61
9335;BME280;4706;41.844;26.082;2023-05-03T06:34:37;101500.00;;;15.85;64.81
9335;BME280;4706;41.844;26.082;2023-05-03T06:37:03;101468.16;;;15.82;64.61
9335;BME280;4706;41.844;26.082;2023-05-03T06:39:29;101454.91;;;15.79;64.39
9335;BME280;4706;41.844;26.082;2023-05-03T06:41:55;101472.44;;;15.66;65.02
9335;BME280;4706;41.844;26.082;2023-05-03T06:44:20;101484.88;;;15.54;65.65
9335;BME280;4706;41.844;26.082;2023-05-03T06:46:46;101501.19;;;15.70;65.60
9335;BME280;4706;41.844;26.082;2023-05-03T06:49:11;101513.09;;;15.70;66.52
9335;BME280;4706;41.844;26.082;2023-05-03T06:51:37;101502.00;;;15.57;67.70
9335;BME280;4706;41.844;26.082;2023-05-03T06:54:02;101513.00;;;15.62;67.51
9335;BME280;4706;41.844;26.082;2023-05-03T06:56:35;101510.03;;;15.44;68.73
9335;BME280;4706;41.844;26.082;2023-05-03T06:59:01;101516.50;;;15.53;69.30
9335;BME280;4706;41.844;26.082;2023-05-03T07:01:28;101513.88;;;15.85;69.14
9335;BME280;4706;41.844;26.082;2023-05-03T07:03:53;101523.53;;;16.10;67.40
9335;BME280;4706;41.844;26.082;2023-05-03T07:06:20;101501.84;;;16.34;65.28
9335;BME280;4706;41.844;26.082;2023-05-03T07:08:49;101487.22;;;16.51;64.47
9335;BME280;4706;41.844;26.082;2023-05-03T07:11:14;101478.84;;;16.42;64.43
9335;BME280;4706;41.844;26.082;2023-05-03T07:13:40;101489.97;;;16.42;65.18
9335;BME280;4706;41.844;26.082;2023-05-03T07:16:05;101475.03;;;16.61;64.92
9335;BME280;4706;41.844;26.082;2023-05-03T07:18:31;101459.50;;;16.99;63.69
9335;BME280;4706;41.844;26.082;2023-05-03T07:20:56;101465.50;;;17.41;61.50
9335;BME280;4706;41.844;26.082;2023-05-03T07:23:22;101455.53;;;17.92;59.60
9335;BME280;4706;41.844;26.082;2023-05-03T07:25:48;101464.66;;;18.36;58.49
9335;BME280;4706;41.844;26.082;2023-05-03T07:28:15;101457.81;;;18.63;55.39
9335;BME280;4706;41.844;26.082;2023-05-03T07:30:40;101465.03;;;18.64;55.00
9335;BME280;4706;41.844;26.082;2023-05-03T07:33:06;101459.16;;;18.66;55.67
9335;BME280;4706;41.844;26.082;2023-05-03T07:35:32;101457.63;;;18.68;55.65
9335;BME280;4706;41.844;26.082;2023-05-03T07:37:57;101455.84;;;18.73;56.00
9335;BME280;4706;41.844;26.082;2023-05-03T07:40:23;101431.94;;;18.63;56.06
9335;BME280;4706;41.844;26.082;2023-05-03T07:42:49;101457.09;;;18.92;55.46
9335;BME280;4706;41.844;26.082;2023-05-03T07:45:14;101447.91;;;18.92;55.92
9335;BME280;4706;41.844;26.082;2023-05-03T07:47:39;101447.41;;;19.20;55.18
9335;BME280;4706;41.844;26.082;2023-05-03T07:50:06;101454.09;;;19.27;54.24
9335;BME280;4706;41.844;26.082;2023-05-03T07:52:35;101450.75;;;19.34;53.10
9335;BME280;4706;41.844;26.082;2023-05-03T07:55:01;101437.81;;;19.29;53.42
9335;BME280;4706;41.844;26.082;2023-05-03T07:57:27;101443.19;;;19.34;52.73
9335;BME280;4706;41.844;26.082;2023-05-03T07:59:53;101435.56;;;19.44;51.93
9335;BME280;4706;41.844;26.082;2023-05-03T08:02:20;101427.56;;;19.42;51.41
9335;BME280;4706;41.844;26.082;2023-05-03T08:04:46;101431.97;;;19.43;51.31
9335;BME280;4706;41.844;26.082;2023-05-03T08:07:12;101431.66;;;19.45;51.47
9335;BME280;4706;41.844;26.082;2023-05-03T08:09:37;101433.28;;;19.67;51.09
9335;BME280;4706;41.844;26.082;2023-05-03T08:12:03;101423.13;;;20.16;48.11
9335;BME280;4706;41.844;26.082;2023-05-03T08:14:28;101414.13;;;20.56;47.68
9335;BME280;4706;41.844;26.082;2023-05-03T08:16:54;101403.78;;;20.81;45.29
9335;BME280;4706;41.844;26.082;2023-05-03T08:19:19;101398.63;;;20.83;43.21
9335;BME280;4706;41.844;26.082;2023-05-03T08:21:45;101400.72;;;20.98;43.10
9335;BME280;4706;41.844;26.082;2023-05-03T08:24:13;101386.41;;;21.00;40.04
9335;BME280;4706;41.844;26.082;2023-05-03T08:26:39;101385.34;;;21.04;40.68
9335;BME280;4706;41.844;26.082;2023-05-03T08:29:06;101380.81;;;21.00;39.51
9335;BME280;4706;41.844;26.082;2023-05-03T08:31:31;101390.56;;;21.06;40.67
9335;BME280;4706;41.844;26.082;2023-05-03T08:33:57;101386.25;;;21.08;40.77
9335;BME280;4706;41.844;26.082;2023-05-03T08:36:23;101377.19;;;20.99;41.44
9335;BME280;4706;41.844;26.082;2023-05-03T08:38:49;101382.13;;;20.66;41.78
9335;BME280;4706;41.844;26.082;2023-05-03T08:41:21;101368.16;;;20.66;43.25
9335;BME280;4706;41.844;26.082;2023-05-03T08:43:52;101363.94;;;20.59;44.38
9335;BME280;4706;41.844;26.082;2023-05-03T08:46:18;101370.94;;;20.66;45.42
9335;BME280;4706;41.844;26.082;2023-05-03T08:48:48;101368.84;;;20.63;45.31
9335;BME280;4706;41.844;26.082;2023-05-03T08:51:15;101374.41;;;20.75;44.77
9335;BME280;4706;41.844;26.082;2023-05-03T08:53:41;101372.78;;;20.74;44.45
9335;BME280;4706;41.844;26.082;2023-05-03T08:56:11;101384.88;;;20.90;43.56
9335;BME280;4706;41.844;26.082;2023-05-03T08:58:40;101389.81;;;20.81;43.10
9335;BME280;4706;41.844;26.082;2023-05-03T09:01:06;101382.44;;;20.89;42.42
9335;BME280;4706;41.844;26.082;2023-05-03T09:03:33;101384.09;;;20.65;42.71
9335;BME280;4706;41.844;26.082;2023-05-03T09:05:59;101363.56;;;20.49;42.53
9335;BME280;4706;41.844;26.082;2023-05-03T09:08:28;101367.66;;;20.76;42.61
9335;BME280;4706;41.844;26.082;2023-05-03T09:10:54;101369.88;;;20.70;41.71
9335;BME280;4706;41.844;26.082;2023-05-03T09:13:20;101380.56;;;20.93;41.68
9335;BME280;4706;41.844;26.082;2023-05-03T09:15:53;101401.84;;;21.34;40.88
9335;BME280;4706;41.844;26.082;2023-05-03T09:18:19;101391.94;;;21.65;39.48
9335;BME280;4706;41.844;26.082;2023-05-03T09:20:46;101402.34;;;21.64;38.93
9335;BME280;4706;41.844;26.082;2023-05-03T09:23:29;101395.78;;;21.44;35.40
9335;BME280;4706;41.844;26.082;2023-05-03T09:25:55;101396.72;;;21.36;36.08
9335;BME280;4706;41.844;26.082;2023-05-03T09:28:21;101393.09;;;21.23;36.64
9335;BME280;4706;41.844;26.082;2023-05-03T09:30:47;101390.94;;;20.92;37.47
9335;BME280;4706;41.844;26.082;2023-05-03T09:33:13;101392.00;;;20.75;38.12
9335;BME280;4706;41.844;26.082;2023-05-03T09:35:57;101369.75;;;20.79;37.05
9335;BME280;4706;41.844;26.082;2023-05-03T09:38:30;101369.19;;;20.73;38.38
9335;BME280;4706;41.844;26.082;2023-05-03T09:40:57;101356.13;;;20.53;38.72
9335;BME280;4706;41.844;26.082;2023-05-03T09:43:23;101374.19;;;20.55;37.03
9335;BME280;4706;41.844;26.082;2023-05-03T09:45:48;101393.63;;;20.64;34.64
9335;BME280;4706;41.844;26.082;2023-05-03T09:48:14;101390.84;;;20.64;35.08
9335;BME280;4706;41.844;26.082;2023-05-03T09:50:41;101406.16;;;20.46;36.37
9335;BME280;4706;41.844;26.082;2023-05-03T09:53:07;101409.09;;;20.49;37.04
9335;BME280;4706;41.844;26.082;2023-05-03T09:55:38;101413.28;;;20.43;37.57
9335;BME280;4706;41.844;26.082;2023-05-03T09:58:04;101428.63;;;20.37;37.97
9335;BME280;4706;41.844;26.082;2023-05-03T10:00:40;101419.19;;;20.29;38.92
9335;BME280;4706;41.844;26.082;2023-05-03T10:03:11;101421.84;;;20.26;39.70
9335;BME280;4706;41.844;26.082;2023-05-03T10:05:47;101434.88;;;20.22;41.23
9335;BME280;4706;41.844;26.082;2023-05-03T10:08:33;101424.97;;;20.12;42.91
9335;BME280;4706;41.844;26.082;2023-05-03T10:11:02;101422.81;;;19.97;43.79
9335;BME280;4706;41.844;26.082;2023-05-03T10:13:29;101422.31;;;19.82;43.54
9335;BME280;4706;41.844;26.082;2023-05-03T10:15:59;101415.03;;;19.69;42.59
9335;BME280;4706;41.844;26.082;2023-05-03T10:18:27;101410.13;;;19.66;39.85
9335;BME280;4706;41.844;26.082;2023-05-03T10:21:03;101408.34;;;19.61;38.77
9335;BME280;4706;41.844;26.082;2023-05-03T10:23:31;101393.19;;;19.71;39.90
9335;BME280;4706;41.844;26.082;2023-05-03T10:28:37;101368.00;;;19.92;41.31
9335;BME280;4706;41.844;26.082;2023-05-03T10:31:03;101356.06;;;20.04;41.53
9335;BME280;4706;41.844;26.082;2023-05-03T10:33:30;101341.06;;;20.08;41.15
9335;BME280;4706;41.844;26.082;2023-05-03T10:35:57;101351.19;;;20.13;41.16
9335;BME280;4706;41.844;26.082;2023-05-03T10:38:25;101356.31;;;20.23;40.12
9335;BME280;4706;41.844;26.082;2023-05-03T10:40:51;101364.59;;;20.32;41.98
9335;BME280;4706;41.844;26.082;2023-05-03T10:45:59;101357.41;;;20.43;42.00
9335;BME280;4706;41.844;26.082;2023-05-03T10:48:26;101347.84;;;20.44;43.41
9335;BME280;4706;41.844;26.082;2023-05-03T10:50:53;101326.78;;;20.47;47.92
9335;BME280;4706;41.844;26.082;2023-05-03T10:53:35;101355.88;;;20.46;51.68
9335;BME280;4706;41.844;26.082;2023-05-03T10:56:11;101357.03;;;20.45;51.28
9335;BME280;4706;41.844;26.082;2023-05-03T10:58:47;101380.31;;;20.36;49.13
9335;BME280;4706;41.844;26.082;2023-05-03T11:01:16;101391.00;;;20.34;48.67
9335;BME280;4706;41.844;26.082;2023-05-03T11:06:31;101390.97;;;19.98;48.26
9335;BME280;4706;41.844;26.082;2023-05-03T11:08:57;101393.09;;;19.80;47.99
9335;BME280;4706;41.844;26.082;2023-05-03T11:11:23;101391.47;;;19.79;49.33
9335;BME280;4706;41.844;26.082;2023-05-03T11:13:52;101393.38;;;19.87;49.61
9335;BME280;4706;41.844;26.082;2023-05-03T11:16:18;101396.66;;;19.68;49.65
9335;BME280;4706;41.844;26.082;2023-05-03T11:18:44;101399.72;;;19.75;49.90
9335;BME280;4706;41.844;26.082;2023-05-03T11:21:10;101396.75;;;19.93;50.10
9335;BME280;4706;41.844;26.082;2023-05-03T11:23:37;101388.38;;;19.93;51.20
9335;BME280;4706;41.844;26.082;2023-05-03T11:26:10;101386.75;;;19.92;52.49
9335;BME280;4706;41.844;26.082;2023-05-03T11:28:42;101378.84;;;19.94;52.69
9335;BME280;4706;41.844;26.082;2023-05-03T11:31:09;101393.16;;;20.04;52.61
9335;BME280;4706;41.844;26.082;2023-05-03T11:33:37;101392.84;;;20.06;52.74
9335;BME280;4706;41.844;26.082;2023-05-03T11:36:05;101373.50;;;20.01;53.58
9335;BME280;4706;41.844;26.082;2023-05-03T11:38:31;101367.81;;;19.97;52.87
9335;BME280;4706;41.844;26.082;2023-05-03T11:40:58;101344.38;;;19.89;54.02
9335;BME280;4706;41.844;26.082;2023-05-03T11:43:25;101334.88;;;19.91;53.93
9335;BME280;4706;41.844;26.082;2023-05-03T11:45:54;101309.72;;;19.91;53.14
9335;BME280;4706;41.844;26.082;2023-05-03T11:48:20;101322.41;;;20.00;53.77
9335;BME280;4706;41.844;26.082;2023-05-03T11:50:51;101332.34;;;20.10;54.49
9335;BME280;4706;41.844;26.082;2023-05-03T11:53:22;101313.22;;;20.00;55.55
9335;BME280;4706;41.844;26.082;2023-05-03T11:55:50;101299.06;;;20.17;54.56
9335;BME280;4706;41.844;26.082;2023-05-03T11:58:21;101298.94;;;20.26;54.75
9335;BME280;4706;41.844;26.082;2023-05-03T12:00:49;101301.50;;;20.43;54.38
9335;BME280;4706;41.844;26.082;2023-05-03T12:03:25;101304.31;;;20.55;53.73
9335;BME280;4706;41.844;26.082;2023-05-03T12:05:51;101307.88;;;20.93;52.51
9335;BME280;4706;41.844;26.082;2023-05-03T12:08:18;101293.84;;;21.45;50.63
9335;BME280;4706;41.844;26.082;2023-05-03T12:10:46;101273.22;;;21.81;49.17
9335;BME280;4706;41.844;26.082;2023-05-03T12:13:11;101280.97;;;22.04;48.07
9335;BME280;4706;41.844;26.082;2023-05-03T12:15:38;101292.81;;;22.13;47.91
9335;BME280;4706;41.844;26.082;2023-05-03T12:18:09;101298.25;;;22.06;47.82
9335;BME280;4706;41.844;26.082;2023-05-03T12:20:36;101303.75;;;21.87;47.51
9335;BME280;4706;41.844;26.082;2023-05-03T12:23:06;101279.56;;;21.50;47.76
9335;BME280;4706;41.844;26.082;2023-05-03T12:25:33;101274.44;;;21.52;47.90
9335;BME280;4706;41.844;26.082;2023-05-03T12:28:00;101260.00;;;21.66;47.12
9335;BME280;4706;41.844;26.082;2023-05-03T12:30:27;101273.19;;;21.66;46.93
9335;BME280;4706;41.844;26.082;2023-05-03T12:32:53;101279.69;;;21.70;46.54
9335;BME280;4706;41.844;26.082;2023-05-03T12:35:20;101273.28;;;21.69;45.68
9335;BME280;4706;41.844;26.082;2023-05-03T12:37:47;101264.06;;;21.69;45.88
9335;BME280;4706;41.844;26.082;2023-05-03T12:40:14;101249.34;;;21.72;45.68
9335;BME280;4706;41.844;26.082;2023-05-03T12:42:40;101250.06;;;21.69;45.31
9335;BME280;4706;41.844;26.082;2023-05-03T12:45:07;101242.22;;;21.74;46.36
9335;BME280;4706;41.844;26.082;2023-05-03T12:47:33;101244.28;;;21.62;47.55
9335;BME280;4706;41.844;26.082;2023-05-03T12:49:59;101228.47;;;21.53;47.99
9335;BME280;4706;41.844;26.082;2023-05-03T12:52:26;101221.16;;;21.65;47.78
9335;BME280;4706;41.844;26.082;2023-05-03T12:54:52;101214.13;;;21.71;48.67
9335;BME280;4706;41.844;26.082;2023-05-03T12:57:17;101213.31;;;21.70;49.42
9335;BME280;4706;41.844;26.082;2023-05-03T12:59:43;101202.22;;;21.90;49.40
9335;BME280;4706;41.844;26.082;2023-05-03T13:02:09;101190.81;;;21.98;48.54
9335;BME280;4706;41.844;26.082;2023-05-03T13:04:35;101174.38;;;21.97;47.85
9335;BME280;4706;41.844;26.082;2023-05-03T13:07:01;101156.81;;;22.00;46.90
9335;BME280;4706;41.844;26.082;2023-05-03T13:09:27;101159.81;;;21.91;46.93
9335;BME280;4706;41.844;26.082;2023-05-03T13:11:53;101164.50;;;22.03;46.70
9335;BME280;4706;41.844;26.082;2023-05-03T13:14:20;101168.78;;;21.97;46.77
9335;BME280;4706;41.844;26.082;2023-05-03T13:16:46;101162.47;;;21.68;47.46